createdAt,value
2022-08-03T00:01:53.319Z,5.32
2022-08-03T00:04:20.294Z,6.32
2022-08-03T00:06:47.000Z,7.03
2022-08-03T00:09:13.736Z,5.10
2022-08-03T00:11:40.647Z,6.55
2022-08-03T00:14:08.041Z,5.13
2022-08-03T00:16:35.165Z,5.72
2022-08-03T00:19:02.567Z,6.53
2022-08-03T00:21:29.525Z,5.43
2022-08-03T00:23:56.680Z,7.13
2022-08-03T00:26:23.681Z,6.35
2022-08-03T00:28:50.705Z,5.88
2022-08-03T00:31:23.026Z,5.85
2022-08-03T00:34:04.454Z,6.97
2022-08-03T00:36:31.179Z,7.00
2022-08-03T00:38:58.348Z,6.00
2022-08-03T00:41:25.283Z,5.60
2022-08-03T00:43:52.586Z,5.53
2022-08-03T00:46:21.904Z,6.13
2022-08-03T00:48:53.154Z,5.60
2022-08-03T00:51:22.232Z,5.45
2022-08-03T00:53:50.023Z,6.63
2022-08-03T00:56:17.847Z,5.57
2022-08-03T00:58:46.012Z,6.03
2022-08-03T01:01:13.620Z,5.07
2022-08-03T01:03:40.706Z,4.72
2022-08-03T01:06:48.370Z,4.88
2022-08-03T01:09:27.139Z,5.97
2022-08-03T01:12:06.481Z,5.53
2022-08-03T01:14:44.252Z,4.88
2022-08-03T01:17:24.811Z,4.50
2022-08-03T01:20:00.610Z,5.20
2022-08-03T01:22:34.825Z,5.70
2022-08-03T01:25:39.732Z,5.03
2022-08-03T01:28:25.431Z,7.28
2022-08-03T01:30:56.611Z,4.40
2022-08-03T01:33:31.434Z,6.25
2022-08-03T01:36:05.023Z,5.45
2022-08-03T01:38:38.595Z,6.00
2022-08-03T01:41:10.778Z,5.18
2022-08-03T01:43:58.968Z,5.57
2022-08-03T01:46:29.823Z,5.72
2022-08-03T01:48:57.952Z,4.20
2022-08-03T01:51:24.770Z,5.03
2022-08-03T01:54:13.360Z,5.03
2022-08-03T01:56:42.777Z,5.25
2022-08-03T01:59:12.121Z,4.13
2022-08-03T02:02:15.211Z,3.97
2022-08-03T02:04:28.458Z,5.00
2022-08-03T02:07:01.394Z,4.95
2022-08-03T02:09:31.271Z,4.38
2022-08-03T02:11:58.934Z,4.20
2022-08-03T02:14:28.223Z,7.03
2022-08-03T02:16:58.666Z,4.73
2022-08-03T02:19:29.490Z,4.90
2022-08-03T02:22:01.339Z,7.60
2022-08-03T02:24:30.710Z,4.97
2022-08-03T02:26:59.610Z,6.05
2022-08-03T02:29:40.379Z,5.67
2022-08-03T02:32:15.496Z,4.75
2022-08-03T02:34:46.519Z,5.82
2022-08-03T02:37:14.857Z,4.45
2022-08-03T02:39:43.785Z,5.10
2022-08-03T02:42:13.305Z,4.97
2022-08-03T02:44:41.553Z,5.60
2022-08-03T02:47:11.198Z,6.05
2022-08-03T02:49:49.991Z,7.38
2022-08-03T02:52:25.432Z,6.63
2022-08-03T02:54:55.021Z,7.03
2022-08-03T02:57:23.406Z,7.55
2022-08-03T02:59:52.041Z,7.60
2022-08-03T03:02:20.300Z,6.22
2022-08-03T03:05:53.625Z,6.75
2022-08-03T03:07:51.973Z,6.53
2022-08-03T03:10:24.723Z,6.22
2022-08-03T03:12:55.355Z,6.05
2022-08-03T03:15:23.699Z,6.90
2022-08-03T03:17:51.735Z,6.40
2022-08-03T03:20:29.705Z,5.83
2022-08-03T03:23:00.682Z,6.45
2022-08-03T03:25:30.734Z,5.85
2022-08-03T03:27:58.372Z,8.32
2022-08-03T03:30:26.892Z,7.57
2022-08-03T03:32:54.368Z,7.07
2022-08-03T03:35:21.478Z,7.25
2022-08-03T03:37:48.490Z,6.90
2022-08-03T03:40:15.307Z,5.38
2022-08-03T03:42:42.273Z,6.88
2022-08-03T03:45:10.168Z,6.47
2022-08-03T03:47:37.631Z,8.90
2022-08-03T03:50:06.468Z,6.20
2022-08-03T03:52:34.354Z,7.97
2022-08-03T03:55:01.674Z,8.25
2022-08-03T03:57:29.487Z,8.00
2022-08-03T03:59:56.553Z,9.75
2022-08-03T04:02:23.447Z,7.03
2022-08-03T04:05:08.518Z,6.47
2022-08-03T04:08:09.724Z,8.05
2022-08-03T04:10:58.844Z,5.63
2022-08-03T04:13:33.713Z,7.20
2022-08-03T04:16:02.137Z,8.57
2022-08-03T04:18:32.624Z,5.82
2022-08-03T04:21:03.679Z,6.75
2022-08-03T04:23:34.812Z,5.50
2022-08-03T04:26:03.435Z,5.35
2022-08-03T04:28:32.471Z,6.65
2022-08-03T04:31:00.805Z,7.25
2022-08-03T04:33:31.356Z,6.28
2022-08-03T04:36:02.895Z,6.70
2022-08-03T04:38:32.934Z,5.75
2022-08-03T04:41:01.511Z,9.45
2022-08-03T04:43:30.469Z,8.13
2022-08-03T04:45:59.272Z,5.60
2022-08-03T04:48:26.485Z,7.67
2022-08-03T04:50:54.502Z,6.10
2022-08-03T04:53:21.434Z,6.68
2022-08-03T04:55:48.498Z,9.77
2022-08-03T04:58:15.272Z,6.05
2022-08-03T05:00:42.929Z,5.97
2022-08-03T05:03:23.740Z,6.05
2022-08-03T05:06:01.545Z,5.38
2022-08-03T05:08:29.515Z,6.15
2022-08-03T05:10:59.035Z,5.30
2022-08-03T05:13:26.531Z,5.23
2022-08-03T05:15:53.461Z,6.43
2022-08-03T05:18:20.372Z,6.88
2022-08-03T05:20:47.214Z,5.40
2022-08-03T05:23:14.040Z,5.80
2022-08-03T05:25:41.104Z,6.50
2022-08-03T05:28:16.714Z,5.65
2022-08-03T05:30:43.689Z,4.93
2022-08-03T05:33:11.055Z,5.60
2022-08-03T05:36:00.564Z,5.80
2022-08-03T05:38:28.601Z,8.40
2022-08-03T05:41:22.812Z,5.30
2022-08-03T05:43:45.091Z,6.85
2022-08-03T05:46:13.182Z,5.30
2022-08-03T05:48:41.872Z,5.80
2022-08-03T05:51:11.411Z,4.43
2022-08-03T05:53:38.893Z,5.03
2022-08-03T05:56:14.147Z,6.38
2022-08-03T05:58:43.478Z,6.50
2022-08-03T06:01:10.260Z,4.18
2022-08-03T06:03:36.980Z,5.43
2022-08-03T06:06:04.332Z,5.28
2022-08-03T06:08:31.001Z,4.30
2022-08-03T06:10:57.799Z,4.00
2022-08-03T06:13:24.689Z,5.45
2022-08-03T06:15:51.347Z,3.93
2022-08-03T06:18:18.065Z,4.30
2022-08-03T06:20:45.021Z,4.70
2022-08-03T06:23:16.106Z,4.97
2022-08-03T06:25:44.785Z,3.80
2022-08-03T06:28:35.185Z,5.00
2022-08-03T06:31:01.094Z,3.35
2022-08-03T06:33:48.428Z,4.07
2022-08-03T06:36:15.342Z,4.25
2022-08-03T06:38:42.279Z,4.82
2022-08-03T06:41:09.084Z,3.30
2022-08-03T06:43:37.816Z,3.92
2022-08-03T06:46:05.564Z,3.70
2022-08-03T06:48:32.535Z,4.07
2022-08-03T06:50:59.454Z,4.75
2022-08-03T06:53:26.474Z,4.43
2022-08-03T06:55:55.093Z,3.35
2022-08-03T06:58:22.667Z,4.70
2022-08-03T07:00:50.198Z,4.13
2022-08-03T07:03:17.411Z,4.47
2022-08-03T07:05:46.691Z,4.43
2022-08-03T07:08:14.509Z,3.60
2022-08-03T07:10:41.324Z,3.50
2022-08-03T07:13:08.091Z,3.80
2022-08-03T07:15:53.998Z,5.00
2022-08-03T07:18:24.577Z,3.90
2022-08-03T07:20:58.197Z,3.75
2022-08-03T07:23:25.625Z,4.07
2022-08-03T07:25:52.748Z,3.40
2022-08-03T07:28:20.577Z,3.47
2022-08-03T07:30:47.798Z,3.60
2022-08-03T07:33:15.232Z,3.75
2022-08-03T07:35:42.330Z,4.32
2022-08-03T07:38:09.511Z,4.03
2022-08-03T07:40:36.214Z,4.93
2022-08-03T07:43:03.786Z,4.60
2022-08-03T07:45:33.776Z,4.93
2022-08-03T07:48:00.610Z,5.38
2022-08-03T07:50:27.492Z,4.22
2022-08-03T07:52:56.041Z,3.90
2022-08-03T07:55:25.390Z,3.50
2022-08-03T07:58:06.007Z,3.83
2022-08-03T08:00:33.978Z,4.82
2022-08-03T08:03:01.165Z,4.32
2022-08-03T08:05:28.179Z,3.97
2022-08-03T08:07:55.465Z,3.53
2022-08-03T08:10:22.647Z,5.72
2022-08-03T08:12:49.696Z,3.50
2022-08-03T08:15:16.632Z,4.32
2022-08-03T08:17:52.326Z,4.95
2022-08-03T08:20:30.656Z,3.30
2022-08-03T08:23:02.023Z,3.53
2022-08-03T08:25:31.320Z,4.10
2022-08-03T08:28:22.392Z,3.53
2022-08-03T08:30:46.301Z,3.40
2022-08-03T08:33:22.483Z,3.57
2022-08-03T08:35:53.146Z,3.10
2022-08-03T08:38:20.399Z,3.85
2022-08-03T08:40:48.703Z,3.20
2022-08-03T08:43:15.873Z,3.72
2022-08-03T08:45:42.647Z,3.97
2022-08-03T08:48:11.063Z,4.55
2022-08-03T08:50:38.851Z,3.00
2022-08-03T08:53:11.603Z,4.43
2022-08-03T08:56:00.103Z,4.95
2022-08-03T08:58:38.594Z,3.10
2022-08-03T09:01:05.899Z,3.92
2022-08-03T09:03:35.792Z,4.22
2022-08-03T09:06:03.214Z,3.60
2022-08-03T09:08:31.740Z,4.05
2022-08-03T09:10:59.702Z,5.40
2022-08-03T09:13:26.511Z,3.13
2022-08-03T09:16:22.475Z,3.63
2022-08-03T09:18:51.815Z,3.90
2022-08-03T09:21:34.548Z,4.13
2022-08-03T09:24:06.325Z,4.17
2022-08-03T09:26:36.214Z,3.58
2022-08-03T09:29:15.388Z,3.90
2022-08-03T09:31:45.199Z,4.85
2022-08-03T09:34:16.697Z,3.30
2022-08-03T09:36:47.772Z,3.10
2022-08-03T09:39:16.618Z,5.25
2022-08-03T09:41:46.285Z,3.97
2022-08-03T09:44:24.379Z,3.92
2022-08-03T09:46:55.161Z,6.50
2022-08-03T09:49:22.858Z,5.13
2022-08-03T09:52:33.089Z,4.40
2022-08-03T09:54:36.684Z,3.85
2022-08-03T09:57:03.651Z,3.83
2022-08-03T09:59:32.034Z,4.10
2022-08-03T10:02:01.749Z,4.90
2022-08-03T10:04:29.061Z,4.28
2022-08-03T10:07:10.530Z,3.65
2022-08-03T10:09:38.304Z,4.50
2022-08-03T10:12:12.788Z,3.55
2022-08-03T10:14:45.719Z,3.63
2022-08-03T10:17:12.922Z,4.32
2022-08-03T10:19:41.240Z,3.65
2022-08-03T10:22:16.596Z,4.90
2022-08-03T10:24:55.241Z,4.20
2022-08-03T10:27:31.168Z,4.13
2022-08-03T10:30:02.913Z,4.75
2022-08-03T10:32:46.075Z,5.10
2022-08-03T10:35:20.938Z,4.55
2022-08-03T10:38:01.856Z,4.38
2022-08-03T10:40:49.494Z,4.17
2022-08-03T10:43:25.977Z,4.80
2022-08-03T10:45:53.177Z,3.92
2022-08-03T10:48:20.832Z,3.60
2022-08-03T10:50:49.586Z,3.60
2022-08-03T10:53:16.614Z,4.30
2022-08-03T10:56:06.027Z,5.10
2022-08-03T10:58:53.232Z,3.88
2022-08-03T11:01:58.581Z,4.10
2022-08-03T11:04:27.255Z,3.70
2022-08-03T11:07:23.790Z,3.30
2022-08-03T11:09:56.241Z,3.60
2022-08-03T11:12:30.803Z,4.10
2022-08-03T11:15:01.331Z,3.92
2022-08-03T11:17:28.648Z,3.88
2022-08-03T11:19:57.455Z,4.23
2022-08-03T11:22:25.520Z,3.83
2022-08-03T11:24:56.339Z,3.78
2022-08-03T11:27:26.122Z,5.05
2022-08-03T11:30:27.628Z,3.45
2022-08-03T11:32:58.606Z,3.47
2022-08-03T11:35:27.137Z,3.50
2022-08-03T11:38:08.578Z,4.43
2022-08-03T11:40:36.631Z,3.88
2022-08-03T11:43:04.969Z,3.88
2022-08-03T11:45:31.928Z,4.73
2022-08-03T11:48:01.833Z,3.92
2022-08-03T11:50:37.297Z,3.83
2022-08-03T11:53:07.109Z,5.00
2022-08-03T11:55:35.742Z,4.15
2022-08-03T11:59:11.262Z,4.43
2022-08-03T12:00:50.817Z,3.30
2022-08-03T12:03:19.719Z,4.57
2022-08-03T12:05:52.129Z,3.75
2022-08-03T12:08:33.291Z,4.07
2022-08-03T12:11:06.608Z,3.90
2022-08-03T12:14:44.752Z,4.95
2022-08-03T12:16:30.625Z,10.73
2022-08-03T12:18:59.324Z,6.30
2022-08-03T12:21:26.667Z,3.80
2022-08-03T12:24:00.776Z,3.40
2022-08-03T12:26:29.370Z,3.88
2022-08-03T12:28:56.171Z,5.72
2022-08-03T12:31:23.308Z,5.18
2022-08-03T12:34:02.888Z,3.30
2022-08-03T12:36:32.867Z,4.60
2022-08-03T12:39:08.835Z,3.72
2022-08-03T12:41:37.581Z,3.60
2022-08-03T12:44:06.255Z,4.93
2022-08-03T12:46:47.451Z,4.72
2022-08-03T12:49:17.347Z,5.07
2022-08-03T12:51:44.078Z,3.42
2022-08-03T12:54:19.024Z,4.40
2022-08-03T12:57:10.407Z,4.05
2022-08-03T12:59:53.076Z,3.53
2022-08-03T13:02:24.670Z,5.47
2022-08-03T13:04:53.248Z,4.28
2022-08-03T13:07:21.404Z,4.13
2022-08-03T13:09:54.367Z,7.20
2022-08-03T13:12:23.838Z,3.65
2022-08-03T13:14:53.380Z,3.80
2022-08-03T13:17:20.525Z,3.10
2022-08-03T13:19:48.323Z,3.38
2022-08-03T13:22:15.646Z,3.42
2022-08-03T13:24:44.230Z,4.70
2022-08-03T13:28:01.630Z,3.90
2022-08-03T13:29:58.654Z,3.75
2022-08-03T13:32:25.641Z,3.40
2022-08-03T13:34:52.317Z,3.72
2022-08-03T13:37:19.363Z,3.70
2022-08-03T13:39:57.455Z,4.30
2022-08-03T13:42:35.132Z,3.22
2022-08-03T13:45:03.190Z,4.32
2022-08-03T13:47:30.129Z,3.72
2022-08-03T13:50:00.895Z,3.20
2022-08-03T13:52:34.082Z,3.17
2022-08-03T13:55:03.854Z,5.13
2022-08-03T13:58:02.397Z,6.60
2022-08-03T14:00:26.624Z,3.63
2022-08-03T14:03:02.805Z,4.95
2022-08-03T14:05:32.244Z,4.47
2022-08-03T14:08:04.538Z,3.70
2022-08-03T14:10:37.895Z,3.60
2022-08-03T14:13:05.682Z,3.80
2022-08-03T14:15:37.936Z,4.65
2022-08-03T14:18:12.713Z,4.63
2022-08-03T14:20:50.089Z,3.63
2022-08-03T14:23:21.381Z,4.28
2022-08-03T14:25:52.354Z,4.32
2022-08-03T14:28:23.739Z,3.72
2022-08-03T14:30:52.014Z,3.63
2022-08-03T14:33:19.139Z,5.03
2022-08-03T14:35:45.873Z,3.97
2022-08-03T14:38:12.925Z,3.60
2022-08-03T14:40:39.805Z,4.10
2022-08-03T14:43:06.730Z,3.80
2022-08-03T14:45:34.296Z,3.90
2022-08-03T14:50:28.699Z,4.88
2022-08-03T14:50:51.709Z,4.20
2022-08-03T14:53:19.757Z,3.60
2022-08-03T14:55:50.748Z,4.40
2022-08-03T14:58:21.014Z,3.25
2022-08-03T15:00:50.129Z,3.30
2022-08-03T15:03:20.390Z,3.20
2022-08-03T15:05:47.720Z,3.10
2022-08-03T15:08:14.618Z,3.80
2022-08-03T15:10:44.784Z,4.80
2022-08-03T15:13:15.431Z,3.90
2022-08-03T15:15:43.479Z,7.20
2022-08-03T15:18:10.359Z,3.40
2022-08-03T15:20:44.864Z,3.33
2022-08-03T15:23:14.283Z,3.92
2022-08-03T15:26:31.914Z,3.33
2022-08-03T15:28:29.167Z,4.50
2022-08-03T15:30:56.213Z,4.63
